Airfield :
LOGIN :

Register | Disclaimer

   EN    FR    IT 

 










Legend :    VFR   Marginal VFR   IFR   Intensive IFR   Very Intensive IFR
Visi :
Ceiling :
>= 8 km
>= 3000ft
5 to 8 km
1000 to 3000 ft
1500m to 5 km
500 to 1000 ft
800 to 1500m
200 to 500 ft
< 800m
< 200 ft
Symbols :   Thunderstorms  Fog  Heavy snow  Heavy precipitations  Wind > 20 kt
SIGMETs :     Misc.  Thunderstorms  Icing  Turbulence  Mountain Waves  Volcanic Ashes






- Airport Elevation : 1000 ft
- IATA code : PEV


LHPP - Pécs Pogany

CURRENT METAR :
  • 201115Z 10010KT 6000 RA FEW016 OVC083 10/09 Q1011 RESHRA

EXPIRED METARs :
  • 201045Z 09012KT 6000 RA FEW016 OVC083 10/09 Q1011 RESHRA
  • 201015Z 09010KT 6000 RA FEW018 OVC083 09/09 Q1012 RESHRA
  • 200945Z 09010KT 6000 -RA FEW016 OVC083 09/09 Q1012 RESHRA
  • 200915Z 08009KT 6000 -RA FEW016 OVC083 09/09 Q1013 RERA
  • 200845Z 08009KT 6000 -RA FEW016 OVC083 09/09 Q1013 RERA

TAF TAF LHPP
Valid from the 20 at 12:00 until the 20 at 21:00 UTC


201115Z 2012/2021 10011KT 8000 FEW015 SCT025 BKN080
TEMPO 2012/2021 4000 -RA BR SCT010 BKN015 OVC040



MET'MAP, your aeronautical weather chart ! - Copyright ORBIFLY December 2007 - Disclaimer

ORBIFLY MET'MAP TEAM :

Programming & Development : Alexandra Zaïnal
Concept & Development : Baudouin d'Aumeries
Co-Development & Prog : Marc-Olivier Méhu
Technical & hardware support : Manuel Goepfert

Contact : metmap@orbifly.com




SOURCES & CREDITS :

   NOAA